Time;durP1;ratioP1;P1;durP2;ratioP2;P2;SDS_P1;SDS_P2;PMS_P1;PMS_P2;Temp;Humidity;BMP_temperature;BMP_pressure;BME280_temperature;BME280_humidity;BME280_pressure;Samples;Min_cycle;Max_cycle;Signal;HPM_P1;HPM_P2
2021/12/08 00:01:14;;;;;;;9.80;5.10;;;3.00;99.90;;;;;;5005866;28;20022;-94
2021/12/08 00:03:40;;;;;;;11.18;5.50;;;3.00;99.90;;;;;;5025137;22;20019;-70
2021/12/08 00:06:06;;;;;;;7.30;4.65;;;3.00;99.90;;;;;;5009868;28;20067;-70
2021/12/08 00:08:33;;;;;;;6.10;4.38;;;3.00;99.90;;;;;;5010564;28;20082;-70
2021/12/08 00:13:30;;;;;;;7.43;4.70;;;3.00;99.90;;;;;;5005168;28;20018;-71
2021/12/08 00:16:00;;;;;;;9.27;4.80;;;3.00;99.90;;;;;;5006694;28;20438;-70
2021/12/08 00:18:28;;;;;;;6.07;3.88;;;3.00;99.90;;;;;;5003782;28;20499;-71
2021/12/08 00:20:59;;;;;;;8.52;4.18;;;3.10;99.90;;;;;;4988316;28;20623;-71
2021/12/08 00:23:26;;;;;;;5.47;4.80;;;3.00;99.90;;;;;;4984275;28;20049;-70
2021/12/08 00:25:52;;;;;;;5.90;4.28;;;3.00;99.90;;;;;;4988572;28;20048;-71
2021/12/08 00:28:18;;;;;;;8.75;5.40;;;3.10;99.90;;;;;;4989233;28;20034;-70
2021/12/08 00:30:47;;;;;;;8.55;4.63;;;3.00;99.90;;;;;;5008453;28;20054;-71
2021/12/08 00:33:14;;;;;;;6.45;4.10;;;3.10;99.90;;;;;;5009484;28;20038;-71
2021/12/08 00:35:41;;;;;;;7.05;4.55;;;3.00;99.90;;;;;;5005491;28;20125;-70
2021/12/08 00:38:07;;;;;;;6.78;4.47;;;3.00;99.90;;;;;;5000149;28;20061;-71
2021/12/08 00:40:34;;;;;;;7.30;3.95;;;3.10;99.90;;;;;;5006158;28;20022;-70
2021/12/08 00:43:01;;;;;;;5.10;3.97;;;3.00;99.90;;;;;;5006383;28;20045;-70
2021/12/08 00:45:27;;;;;;;4.68;4.10;;;3.00;99.90;;;;;;5005801;28;20030;-70
2021/12/08 00:47:55;;;;;;;7.00;4.28;;;3.00;99.90;;;;;;5010488;28;20049;-70
2021/12/08 00:50:24;;;;;;;5.28;3.55;;;3.00;99.90;;;;;;4992051;28;20186;-71
2021/12/08 00:52:51;;;;;;;9.35;4.82;;;2.90;99.90;;;;;;4990781;28;20034;-70
2021/12/08 00:55:18;;;;;;;8.13;4.70;;;2.90;99.90;;;;;;5007281;28;20272;-70
2021/12/08 00:57:44;;;;;;;10.27;5.43;;;3.00;99.90;;;;;;5009704;28;20032;-69
2021/12/08 01:00:15;;;;;;;6.03;5.05;;;2.90;99.90;;;;;;5005343;28;20156;-70
2021/12/08 01:02:41;;;;;;;7.55;4.70;;;3.00;99.90;;;;;;5006115;28;20113;-70
2021/12/08 01:05:10;;;;;;;6.32;4.00;;;3.00;99.90;;;;;;4991586;28;20520;-70
2021/12/08 01:07:36;;;;;;;4.90;4.32;;;3.00;99.90;;;;;;5009481;28;20499;-70
2021/12/08 01:10:05;;;;;;;5.55;3.85;;;3.00;99.90;;;;;;5008909;28;20105;-70
2021/12/08 01:12:31;;;;;;;5.90;4.88;;;3.00;99.90;;;;;;5005209;28;20018;-70
2021/12/08 01:14:57;;;;;;;6.05;4.82;;;3.00;99.90;;;;;;5007429;28;20371;-70
2021/12/08 01:17:23;;;;;;;7.90;4.85;;;3.00;99.90;;;;;;5009492;28;20037;-70
2021/12/08 01:19:48;;;;;;;9.40;4.35;;;3.00;99.90;;;;;;4991415;28;20458;-71
2021/12/08 01:22:15;;;;;;;5.85;3.95;;;3.00;99.90;;;;;;5009775;28;20037;-70
2021/12/08 01:24:41;;;;;;;5.90;4.43;;;3.10;99.90;;;;;;5007054;28;20030;-71
2021/12/08 01:27:06;;;;;;;8.68;3.80;;;3.10;99.90;;;;;;5007151;28;20063;-70
2021/12/08 01:29:32;;;;;;;3.92;3.53;;;3.10;99.90;;;;;;5004175;28;20026;-71
2021/12/08 01:31:58;;;;;;;10.35;3.53;;;3.00;99.90;;;;;;5006194;28;20491;-69
2021/12/08 01:34:24;;;;;;;5.03;4.10;;;3.00;99.90;;;;;;4999724;28;20080;-69
2021/12/08 01:36:49;;;;;;;6.22;3.90;;;3.10;99.90;;;;;;4988929;28;20034;-70
2021/12/08 01:39:15;;;;;;;5.30;3.83;;;3.00;99.90;;;;;;4991980;28;20029;-70
2021/12/08 01:41:41;;;;;;;5.80;3.95;;;2.90;99.90;;;;;;5008796;28;20022;-71
2021/12/08 01:46:55;;;;;;;8.20;4.13;;;2.90;99.90;;;;;;5005569;28;20080;-71
2021/12/08 01:49:21;;;;;;;5.22;4.07;;;2.90;99.90;;;;;;4990591;28;20060;-71
2021/12/08 01:51:47;;;;;;;4.32;3.88;;;2.90;99.90;;;;;;4989049;28;20053;-72
2021/12/08 01:54:13;;;;;;;10.48;4.82;;;2.80;99.90;;;;;;4983000;28;20042;-72
2021/12/08 01:56:40;;;;;;;6.28;3.83;;;2.80;99.90;;;;;;5004164;28;20022;-72
2021/12/08 01:59:09;;;;;;;6.07;4.45;;;2.80;99.90;;;;;;5005933;28;20034;-73
2021/12/08 02:01:38;;;;;;;4.90;3.60;;;2.90;99.90;;;;;;5004577;28;20030;-72
2021/12/08 02:04:06;;;;;;;5.38;3.72;;;2.80;99.90;;;;;;5000570;28;20021;-71
2021/12/08 02:06:43;;;;;;;4.00;3.25;;;2.90;99.90;;;;;;5006640;28;20030;-71
2021/12/08 02:09:12;;;;;;;6.43;4.38;;;2.80;99.90;;;;;;5009040;28;20026;-71
2021/12/08 02:11:40;;;;;;;7.78;3.72;;;2.80;99.90;;;;;;5006118;28;20036;-71
2021/12/08 02:14:07;;;;;;;8.05;4.63;;;2.80;99.90;;;;;;5008598;28;20030;-71
2021/12/08 02:16:33;;;;;;;8.40;4.78;;;2.70;99.90;;;;;;5008242;28;20152;-72
2021/12/08 02:19:00;;;;;;;3.90;3.25;;;2.70;99.90;;;;;;5001489;28;20550;-70
2021/12/08 02:21:39;;;;;;;6.22;3.78;;;2.70;99.90;;;;;;5007820;28;20555;-71
2021/12/08 02:24:11;;;;;;;11.73;4.13;;;2.70;99.90;;;;;;5008192;28;20025;-71
2021/12/08 02:26:39;;;;;;;5.13;3.28;;;2.70;99.90;;;;;;5007327;28;20459;-71
2021/12/08 02:29:10;;;;;;;5.15;4.07;;;2.60;99.90;;;;;;5004541;28;20030;-71
2021/12/08 02:47:55;;;;;;;6.72;4.68;;;2.50;99.90;;;;;;5009818;28;20068;-72
2021/12/08 02:50:25;;;;;;;;;;;2.40;99.90;;;;;;5009088;28;20038;-73
2021/12/08 02:52:52;;;;;;;6.30;3.30;;;2.40;99.90;;;;;;5008422;28;20004;-71
2021/12/08 02:55:18;;;;;;;8.45;4.15;;;2.40;99.90;;;;;;5012568;28;20257;-72
2021/12/08 02:57:44;;;;;;;5.70;3.80;;;2.40;99.90;;;;;;5012220;28;20046;-71
2021/12/08 03:00:15;;;;;;;5.07;3.95;;;2.40;99.90;;;;;;5009908;28;20029;-72
2021/12/08 03:02:41;;;;;;;5.28;4.28;;;2.40;99.90;;;;;;5010348;28;20029;-72
2021/12/08 03:05:08;;;;;;;4.53;3.05;;;2.50;99.90;;;;;;5010575;28;20438;-72
2021/12/08 03:07:34;;;;;;;6.95;3.95;;;2.40;99.90;;;;;;5009974;28;20062;-72
2021/12/08 03:10:13;;;;;;;5.32;3.97;;;2.50;99.90;;;;;;4994081;28;20022;-72
2021/12/08 03:12:39;;;;;;;4.05;2.97;;;2.40;99.90;;;;;;5007415;28;20048;-71
2021/12/08 03:15:06;;;;;;;3.25;2.85;;;2.40;99.90;;;;;;5011313;28;20061;-71
2021/12/08 03:17:34;;;;;;;3.63;3.30;;;2.40;99.90;;;;;;5010902;28;20037;-72
2021/12/08 03:20:00;;;;;;;6.40;3.75;;;2.40;99.90;;;;;;5008433;28;20018;-72
2021/12/08 03:22:25;;;;;;;4.88;3.78;;;2.40;99.90;;;;;;5010884;28;20033;-72
2021/12/08 03:24:53;;;;;;;5.93;2.83;;;2.40;99.90;;;;;;5011371;28;20344;-72
2021/12/08 03:27:25;;;;;;;11.32;4.45;;;2.40;99.90;;;;;;5010450;28;20037;-71
2021/12/08 03:29:56;;;;;;;5.20;3.38;;;2.40;99.90;;;;;;5011599;28;20018;-73
2021/12/08 03:32:42;;;;;;;7.15;4.07;;;2.40;99.90;;;;;;5010364;28;20550;-72
2021/12/08 03:35:12;;;;;;;8.02;3.90;;;2.40;99.90;;;;;;5006907;28;20029;-72
2021/12/08 03:37:42;;;;;;;11.00;5.40;;;2.40;99.90;;;;;;4994233;28;20038;-72
2021/12/08 03:40:13;;;;;;;14.95;6.50;;;2.40;99.90;;;;;;5012350;28;20038;-72
2021/12/08 03:42:39;;;;;;;12.45;6.55;;;2.40;99.90;;;;;;5010762;28;20103;-72
2021/12/08 03:45:14;;;;;;;5.82;3.47;;;2.50;99.90;;;;;;5010376;28;20629;-71
2021/12/08 03:47:43;;;;;;;7.93;3.92;;;2.50;99.90;;;;;;4989994;28;20041;-72
2021/12/08 03:50:13;;;;;;;5.05;3.75;;;2.40;99.90;;;;;;4989409;28;20030;-72
2021/12/08 03:52:39;;;;;;;4.05;2.75;;;2.50;99.90;;;;;;5007832;28;20030;-71
2021/12/08 03:55:08;;;;;;;4.13;2.90;;;2.50;99.90;;;;;;5006287;28;20044;-73
2021/12/08 03:57:33;;;;;;;4.32;2.85;;;2.50;99.90;;;;;;5009670;28;20026;-73
2021/12/08 03:59:59;;;;;;;4.97;2.78;;;2.50;99.90;;;;;;5006526;28;20494;-71
2021/12/08 04:02:26;;;;;;;5.32;3.08;;;2.50;99.90;;;;;;5006863;28;20018;-72
2021/12/08 04:04:53;;;;;;;5.82;3.28;;;2.60;99.90;;;;;;5011600;28;20030;-72
2021/12/08 04:07:19;;;;;;;3.28;2.97;;;2.60;99.90;;;;;;5010055;28;20030;-72
2021/12/08 04:09:48;;;;;;;4.18;3.30;;;2.60;99.90;;;;;;5013025;28;20446;-72
2021/12/08 04:12:17;;;;;;;6.95;3.75;;;2.60;99.90;;;;;;5010506;28;20026;-72
2021/12/08 04:14:52;;;;;;;5.30;2.80;;;2.50;99.90;;;;;;5013053;28;20030;-70
2021/12/08 04:17:32;;;;;;;4.05;2.35;;;2.50;99.90;;;;;;4986710;28;20034;-69
2021/12/08 04:20:00;;;;;;;4.72;2.90;;;2.50;99.90;;;;;;5010534;28;20033;-71
2021/12/08 04:22:35;;;;;;;3.45;3.15;;;2.50;99.90;;;;;;4988533;28;20111;-70
2021/12/08 04:25:07;;;;;;;3.95;3.20;;;2.50;99.90;;;;;;5008127;28;20517;-70
2021/12/08 04:27:34;;;;;;;;;;;2.50;99.90;;;;;;5007911;28;20053;-69
2021/12/08 04:30:04;;;;;;;5.15;2.63;;;2.50;99.90;;;;;;5005649;28;19918;-69
2021/12/08 04:32:32;;;;;;;4.57;2.55;;;2.50;99.90;;;;;;5001407;28;20097;-70
2021/12/08 04:35:00;;;;;;;4.05;3.55;;;2.60;99.90;;;;;;5010487;28;20317;-70
2021/12/08 04:37:31;;;;;;;6.38;2.85;;;2.60;99.90;;;;;;4990413;28;20037;-70
2021/12/08 04:45:45;;;;;;;3.30;3.00;;;2.60;99.90;;;;;;5007619;28;20056;-69
2021/12/08 04:48:26;;;;;;;10.05;4.65;;;2.60;99.90;;;;;;5011138;28;20026;-70
2021/12/08 05:05:47;;;;;;;9.40;2.78;;;2.80;99.90;;;;;;5010594;28;20044;-71
2021/12/08 05:09:49;;;;;;;3.28;2.97;;;2.90;99.90;;;;;;5006996;28;20440;-70
2021/12/08 05:12:24;;;;;;;4.50;3.40;;;2.90;99.90;;;;;;5005130;28;20117;-70
2021/12/08 05:14:55;;;;;;;5.43;2.88;;;3.00;99.90;;;;;;5008736;28;20518;-69
2021/12/08 05:17:36;;;;;;;4.38;2.78;;;3.20;99.90;;;;;;5009044;28;20049;-69
2021/12/08 05:20:26;;;;;;;4.30;2.95;;;3.30;99.90;;;;;;5004445;28;20058;-70
2021/12/08 05:22:56;;;;;;;5.78;2.13;;;3.40;99.90;;;;;;5008081;28;20022;-72
2021/12/08 05:25:26;;;;;;;4.20;2.00;;;3.40;99.90;;;;;;5009290;28;20018;-71
2021/12/08 05:27:54;;;;;;;3.03;2.53;;;3.50;99.90;;;;;;5004566;28;20376;-71
2021/12/08 05:30:32;;;;;;;4.65;2.88;;;3.50;99.90;;;;;;5008903;28;20026;-72
2021/12/08 05:32:59;;;;;;;3.67;2.75;;;3.60;99.90;;;;;;5006547;28;20482;-72
2021/12/08 05:35:27;;;;;;;3.40;2.97;;;3.50;99.90;;;;;;5008586;28;20045;-71
2021/12/08 05:37:53;;;;;;;7.18;3.50;;;3.50;99.90;;;;;;5007200;28;20431;-72
2021/12/08 05:41:04;;;;;;;3.08;2.72;;;3.60;99.90;;;;;;5008853;28;20038;-72
2021/12/08 05:43:29;;;;;;;5.30;3.22;;;3.50;99.90;;;;;;4997879;28;20198;-71
2021/12/08 05:45:55;;;;;;;8.23;3.17;;;3.60;99.90;;;;;;5007949;28;20105;-71
2021/12/08 05:48:22;;;;;;;3.92;2.80;;;3.60;99.90;;;;;;5004574;28;20370;-72
2021/12/08 05:51:01;;;;;;;4.75;3.13;;;3.60;99.90;;;;;;5006254;28;20035;-73
2021/12/08 05:53:28;;;;;;;4.57;2.42;;;3.70;99.90;;;;;;5011024;28;20110;-73
2021/12/08 05:55:55;;;;;;;6.25;3.20;;;3.70;99.90;;;;;;5005522;28;20056;-72
2021/12/08 05:58:23;;;;;;;4.00;3.60;;;3.70;99.90;;;;;;5003832;28;20030;-73
2021/12/08 06:00:57;;;;;;;3.63;3.30;;;3.70;99.90;;;;;;5006970;28;20096;-72
2021/12/08 06:03:23;;;;;;;6.70;3.10;;;3.80;99.90;;;;;;5003803;28;20023;-72
2021/12/08 06:05:52;;;;;;;4.70;2.75;;;3.80;99.90;;;;;;5006654;28;20126;-74
2021/12/08 06:08:19;;;;;;;3.72;2.90;;;3.80;99.90;;;;;;5008341;28;20069;-72
2021/12/08 06:10:45;;;;;;;6.30;2.35;;;3.80;99.90;;;;;;5010031;28;20038;-72
2021/12/08 06:13:12;;;;;;;6.38;3.60;;;3.80;99.90;;;;;;5005043;28;20037;-72
2021/12/08 06:15:40;;;;;;;6.35;3.05;;;3.80;99.90;;;;;;5011591;28;20575;-71
2021/12/08 06:18:07;;;;;;;3.75;2.70;;;3.80;99.90;;;;;;5012735;28;20045;-72
2021/12/08 06:20:33;;;;;;;5.00;3.13;;;3.90;99.90;;;;;;4998449;28;20041;-71
2021/12/08 06:23:00;;;;;;;9.05;2.60;;;3.90;99.90;;;;;;4995581;28;20428;-72
2021/12/08 06:25:27;;;;;;;7.03;3.05;;;3.90;99.90;;;;;;5008466;28;20464;-73
2021/12/08 06:27:54;;;;;;;5.65;3.90;;;3.80;99.90;;;;;;5011807;28;20025;-73
2021/12/08 06:30:24;;;;;;;5.07;2.78;;;3.80;99.90;;;;;;5010218;28;20685;-72
2021/12/08 06:32:50;;;;;;;2.92;2.13;;;3.90;99.90;;;;;;5009611;28;20022;-73
2021/12/08 06:35:22;;;;;;;4.28;3.05;;;3.80;99.90;;;;;;5010533;28;20104;-74
2021/12/08 06:37:49;;;;;;;3.92;2.70;;;3.90;99.90;;;;;;5011864;28;20056;-72
2021/12/08 06:40:27;;;;;;;4.38;2.65;;;3.90;99.90;;;;;;5008825;28;20031;-72
2021/12/08 06:42:59;;;;;;;3.13;2.80;;;4.00;99.90;;;;;;5009435;28;20029;-72
2021/12/08 06:45:29;;;;;;;3.58;3.17;;;4.00;99.90;;;;;;5011619;28;20068;-72
2021/12/08 06:47:58;;;;;;;4.93;3.10;;;4.00;99.90;;;;;;5010851;28;20030;-72
2021/12/08 06:50:28;;;;;;;3.67;2.72;;;4.10;99.90;;;;;;5006639;28;20029;-71
2021/12/08 06:52:56;;;;;;;7.88;2.92;;;4.10;99.90;;;;;;5010978;28;20022;-72
2021/12/08 06:55:30;;;;;;;7.07;3.28;;;4.20;99.90;;;;;;5005853;28;20170;-73
2021/12/08 06:58:10;;;;;;;3.85;2.92;;;4.20;99.90;;;;;;5000419;28;20125;-72
2021/12/08 07:01:14;;;;;;;4.20;2.50;;;4.30;99.90;;;;;;4989864;28;20026;-71
2021/12/08 07:04:10;;;;;;;5.95;3.30;;;4.40;99.90;;;;;;5008570;28;20427;-72
2021/12/08 07:07:14;;;;;;;2.90;2.22;;;4.50;99.90;;;;;;5010237;28;20533;-72
2021/12/08 07:09:40;;;;;;;4.38;2.88;;;4.50;99.90;;;;;;5011305;28;20034;-73
2021/12/08 07:12:22;;;;;;;5.45;2.60;;;4.50;99.90;;;;;;5012932;28;20026;-72
2021/12/08 07:14:55;;;;;;;3.70;3.15;;;4.50;99.90;;;;;;4991264;28;20037;-73
2021/12/08 07:17:27;;;;;;;4.78;2.70;;;4.60;99.90;;;;;;5010542;28;20084;-73
2021/12/08 07:20:15;;;;;;;3.08;2.70;;;4.60;99.90;;;;;;5011575;28;20028;-74
2021/12/08 07:22:46;;;;;;;3.83;3.10;;;4.60;99.90;;;;;;5006104;28;20391;-71
2021/12/08 07:25:15;;;;;;;5.38;3.22;;;4.60;99.90;;;;;;5011482;28;20026;-73
2021/12/08 07:27:41;;;;;;;8.82;3.75;;;4.70;99.90;;;;;;5008488;28;20204;-72
2021/12/08 07:30:18;;;;;;;4.43;2.92;;;4.70;99.90;;;;;;5013927;28;20038;-71
2021/12/08 07:32:43;;;;;;;6.40;2.92;;;4.80;99.90;;;;;;5007760;28;20038;-72
2021/12/08 07:35:18;;;;;;;5.88;3.17;;;4.80;99.90;;;;;;5011421;28;20030;-73
2021/12/08 07:37:45;;;;;;;7.55;4.13;;;4.90;99.90;;;;;;4988408;28;20026;-72
2021/12/08 07:40:16;;;;;;;4.57;2.90;;;5.00;99.90;;;;;;5009620;28;20506;-72
2021/12/08 07:42:54;;;;;;;4.72;3.70;;;5.00;99.90;;;;;;4990061;28;20097;-72
2021/12/08 07:45:39;;;;;;;5.85;3.50;;;5.00;99.90;;;;;;5010700;28;20292;-72
2021/12/08 07:48:09;;;;;;;8.95;2.92;;;5.10;99.90;;;;;;5007756;28;20550;-72
2021/12/08 07:50:51;;;;;;;5.43;3.72;;;5.30;99.90;;;;;;5010776;28;20507;-74
2021/12/08 07:53:20;;;;;;;6.35;3.30;;;5.30;99.90;;;;;;5010051;28;20117;-72
2021/12/08 07:55:48;;;;;;;6.63;3.83;;;5.40;99.90;;;;;;5006716;28;20538;-73
2021/12/08 07:58:20;;;;;;;4.45;3.50;;;5.50;99.90;;;;;;5008848;28;20120;-72
2021/12/08 08:01:03;;;;;;;6.63;3.60;;;5.50;99.90;;;;;;5010081;28;20167;-73
2021/12/08 08:03:32;;;;;;;5.30;3.80;;;5.60;99.90;;;;;;4993582;28;20397;-72
2021/12/08 08:06:01;;;;;;;5.20;3.45;;;5.70;99.90;;;;;;4991896;28;20041;-71
2021/12/08 08:08:31;;;;;;;7.13;3.97;;;5.70;99.90;;;;;;5005523;28;20029;-72
2021/12/08 08:11:06;;;;;;;3.63;3.15;;;5.80;99.90;;;;;;5007170;28;20030;-73
2021/12/08 08:13:33;;;;;;;7.68;4.22;;;5.80;99.90;;;;;;4987628;28;20033;-71
2021/12/08 08:16:14;;;;;;;4.82;3.35;;;5.80;99.90;;;;;;5002950;28;20509;-73
2021/12/08 08:18:44;;;;;;;7.85;4.07;;;5.90;99.90;;;;;;5008447;28;20030;-74
2021/12/08 08:21:14;;;;;;;10.02;6.90;;;6.00;99.90;;;;;;5005363;28;20030;-73
2021/12/08 08:23:40;;;;;;;11.25;7.72;;;6.10;99.90;;;;;;5007275;28;20455;-73
2021/12/08 08:26:09;;;;;;;11.00;7.03;;;6.20;99.90;;;;;;5009035;28;20128;-72
2021/12/08 08:28:35;;;;;;;7.55;5.47;;;6.30;99.90;;;;;;4992451;28;20104;-74
2021/12/08 08:31:11;;;;;;;6.88;4.97;;;6.30;99.90;;;;;;5008939;28;20101;-78
2021/12/08 08:33:39;;;;;;;5.25;4.75;;;6.40;99.90;;;;;;5009185;28;20034;-72
2021/12/08 08:36:11;;;;;;;6.32;5.57;;;6.50;99.90;;;;;;5007795;28;20034;-73
2021/12/08 08:38:44;;;;;;;7.07;3.37;;;6.70;99.90;;;;;;4989977;28;20112;-74
2021/12/08 08:41:18;;;;;;;5.15;3.00;;;6.80;99.90;;;;;;5006669;28;20026;-72
2021/12/08 08:43:45;;;;;;;5.97;3.50;;;6.90;99.90;;;;;;5009798;28;20036;-74
2021/12/08 08:46:16;;;;;;;4.32;2.92;;;6.90;99.90;;;;;;5006833;28;20045;-72
2021/12/08 08:48:51;;;;;;;6.90;3.15;;;6.90;99.90;;;;;;5008270;28;20026;-73
2021/12/08 08:51:34;;;;;;;3.22;2.92;;;6.90;99.90;;;;;;5009009;28;20080;-71
2021/12/08 08:54:15;;;;;;;5.22;3.42;;;6.90;99.90;;;;;;5004139;28;20386;-72
2021/12/08 08:56:45;;;;;;;8.30;3.20;;;7.00;99.90;;;;;;4990968;28;20041;-73
2021/12/08 08:59:15;;;;;;;3.42;2.60;;;7.10;99.90;;;;;;5009023;28;20034;-72
2021/12/08 09:01:49;;;;;;;4.63;3.13;;;7.20;99.90;;;;;;4999455;28;20025;-73
2021/12/08 09:04:17;;;;;;;4.93;3.92;;;7.40;99.90;;;;;;5009870;28;20026;-72
2021/12/08 09:06:46;;;;;;;4.07;2.88;;;7.50;99.90;;;;;;4991856;28;20077;-72
2021/12/08 09:09:17;;;;;;;6.97;2.92;;;7.50;99.90;;;;;;5008491;28;20026;-73
2021/12/08 09:11:52;;;;;;;6.05;4.10;;;7.70;99.90;;;;;;5010548;28;20022;-74
2021/12/08 09:14:28;;;;;;;6.13;4.10;;;7.80;99.90;;;;;;5011166;28;20136;-73
2021/12/08 09:17:11;;;;;;;6.38;4.10;;;8.00;99.90;;;;;;5010591;28;20034;-72
2021/12/08 09:19:46;;;;;;;4.00;3.50;;;8.20;99.90;;;;;;5009924;28;20384;-73
2021/12/08 09:22:44;;;;;;;6.47;2.85;;;8.30;99.90;;;;;;5010852;28;20468;-73
2021/12/08 09:25:19;;;;;;;7.50;3.28;;;8.40;99.90;;;;;;5010781;28;20068;-72
2021/12/08 09:27:52;;;;;;;3.20;2.90;;;8.50;99.90;;;;;;5011125;28;20075;-75
2021/12/08 09:30:32;;;;;;;4.05;3.22;;;8.60;99.90;;;;;;5012918;28;20033;-73
2021/12/08 09:33:04;;;;;;;4.18;3.67;;;8.60;99.90;;;;;;5011569;28;20029;-73
2021/12/08 09:35:36;;;;;;;4.50;3.33;;;8.70;99.90;;;;;;5010549;28;20057;-74
2021/12/08 09:38:41;;;;;;;3.13;2.13;;;8.60;99.90;;;;;;5010698;28;20440;-73
2021/12/08 09:41:26;;;;;;;3.00;1.98;;;8.60;99.90;;;;;;5005519;28;20044;-72
2021/12/08 09:43:57;;;;;;;3.33;2.40;;;8.60;99.90;;;;;;5010962;28;20148;-75
2021/12/08 09:46:34;;;;;;;3.47;2.78;;;8.70;99.90;;;;;;5010287;28;20018;-73
2021/12/08 09:49:02;;;;;;;7.80;3.90;;;8.70;99.90;;;;;;4990696;28;20069;-75
2021/12/08 09:51:29;;;;;;;4.65;3.00;;;8.80;99.90;;;;;;5011454;28;20380;-74
2021/12/08 09:53:55;;;;;;;6.40;3.40;;;8.90;99.90;;;;;;5011023;28;20026;-72
2021/12/08 09:56:23;;;;;;;11.00;3.72;;;8.80;99.90;;;;;;5010076;28;20025;-73
2021/12/08 09:58:49;;;;;;;4.65;2.65;;;8.90;99.90;;;;;;5008106;28;20022;-74
2021/12/08 10:01:19;;;;;;;8.07;3.72;;;8.90;99.90;;;;;;5010320;28;20034;-75
2021/12/08 10:03:48;;;;;;;4.15;3.40;;;9.00;99.90;;;;;;5010131;28;20471;-73
2021/12/08 10:06:14;;;;;;;4.82;3.28;;;9.10;99.90;;;;;;4989705;28;20038;-73
2021/12/08 10:08:42;;;;;;;3.97;3.22;;;9.20;99.90;;;;;;5009960;28;20030;-73
2021/12/08 10:11:08;;;;;;;7.30;3.40;;;9.30;99.90;;;;;;5003991;28;20026;-73
2021/12/08 10:13:34;;;;;;;4.25;3.45;;;9.40;99.90;;;;;;4989045;28;20081;-73
2021/12/08 10:16:00;;;;;;;9.38;4.53;;;9.40;99.90;;;;;;5007892;28;20046;-73
2021/12/08 10:18:26;;;;;;;3.88;3.15;;;9.50;99.90;;;;;;5009697;28;20024;-73
2021/12/08 10:20:55;;;;;;;4.38;3.78;;;9.50;99.90;;;;;;5004515;28;20478;-72
2021/12/08 10:23:30;;;;;;;11.30;8.10;;;9.40;99.90;;;;;;5010146;28;20045;-74
2021/12/08 10:25:58;;;;;;;30.73;17.48;;;9.40;99.90;;;;;;5009503;28;20029;-75
2021/12/08 10:28:31;;;;;;;67.00;31.15;;;9.20;99.90;;;;;;5009645;28;20030;-74
2021/12/08 10:31:14;;;;;;;36.47;18.50;;;9.20;99.90;;;;;;5009969;28;20447;-72
2021/12/08 10:34:35;;;;;;;13.95;7.88;;;9.20;99.90;;;;;;4994264;28;20113;-76
2021/12/08 10:37:00;;;;;;;13.75;6.32;;;9.00;99.90;;;;;;5006179;28;20042;-73
2021/12/08 10:39:52;;;;;;;14.35;6.63;;;9.00;99.90;;;;;;5010077;28;20057;-72
2021/12/08 10:42:27;;;;;;;14.88;9.00;;;9.10;99.90;;;;;;5010510;28;20029;-74
2021/12/08 10:45:15;;;;;;;11.20;6.47;;;9.30;99.90;;;;;;5001951;28;20030;-73
2021/12/08 10:47:47;;;;;;;10.20;5.05;;;9.40;99.90;;;;;;5004902;28;20268;-75
2021/12/08 10:56:05;;;;;;;10.00;4.80;;;9.80;99.90;;;;;;5012771;28;20061;-73
2021/12/08 10:58:33;;;;;;;9.10;6.05;;;9.90;99.90;;;;;;5012954;28;20026;-73
2021/12/08 11:01:12;;;;;;;6.45;4.00;;;9.90;99.90;;;;;;5011593;28;20014;-73
2021/12/08 11:03:39;;;;;;;7.38;4.68;;;9.90;99.90;;;;;;5010230;28;20018;-73
2021/12/08 11:06:06;;;;;;;6.28;3.40;;;9.80;99.90;;;;;;5004462;28;20029;-72
2021/12/08 11:08:36;;;;;;;5.03;3.63;;;9.80;99.90;;;;;;4993790;28;20057;-73
2021/12/08 11:11:11;;;;;;;4.53;3.58;;;9.90;99.90;;;;;;4999143;28;20169;-73
2021/12/08 11:13:54;;;;;;;7.03;3.00;;;9.80;99.90;;;;;;5007794;28;20026;-74
2021/12/08 11:16:35;;;;;;;6.95;3.10;;;9.80;99.90;;;;;;5013427;28;20116;-72
2021/12/08 11:19:10;;;;;;;8.13;3.42;;;9.70;99.90;;;;;;4993042;28;20041;-74
2021/12/08 11:21:46;;;;;;;5.03;2.83;;;9.80;99.90;;;;;;5013378;28;20080;-73
2021/12/08 11:24:30;;;;;;;8.43;4.00;;;9.80;99.90;;;;;;5008042;28;20036;-72
2021/12/08 11:26:57;;;;;;;4.35;3.17;;;9.90;99.90;;;;;;5012181;28;20014;-72
2021/12/08 11:29:24;;;;;;;3.78;3.17;;;9.90;99.90;;;;;;5013175;28;20029;-73
2021/12/08 11:31:54;;;;;;;3.47;3.03;;;9.90;99.90;;;;;;5013153;28;20052;-72
2021/12/08 11:34:34;;;;;;;3.85;2.90;;;10.10;99.90;;;;;;5003984;28;20041;-72
2021/12/08 11:37:04;;;;;;;3.30;2.40;;;10.20;99.90;;;;;;5006456;28;20101;-73
2021/12/08 11:39:33;;;;;;;3.85;2.00;;;10.20;99.90;;;;;;5008438;28;20105;-72
2021/12/08 11:42:06;;;;;;;2.90;2.55;;;9.90;99.90;;;;;;5012771;28;20141;-74
2021/12/08 11:44:35;;;;;;;3.20;1.98;;;9.90;99.90;;;;;;5005326;28;20017;-74
2021/12/08 11:47:06;;;;;;;1.75;1.65;;;9.80;99.90;;;;;;5012077;28;20071;-72
2021/12/08 11:49:33;;;;;;;8.07;2.55;;;9.60;99.90;;;;;;5012770;28;20022;-74
2021/12/08 11:52:09;;;;;;;2.55;2.00;;;9.60;99.90;;;;;;5011855;28;20025;-74
2021/12/08 11:54:52;;;;;;;4.30;2.40;;;9.80;99.90;;;;;;4994676;28;20140;-74
2021/12/08 11:57:28;;;;;;;3.22;1.63;;;9.80;99.90;;;;;;5011481;28;20084;-75
2021/12/08 11:59:56;;;;;;;4.03;2.42;;;9.70;99.90;;;;;;5008308;28;20661;-74
2021/12/08 12:02:56;;;;;;;1.70;1.20;;;9.80;99.90;;;;;;5010779;28;20053;-74
2021/12/08 12:05:47;;;;;;;1.58;1.48;;;9.80;99.90;;;;;;5005222;28;20034;-76
2021/12/08 12:08:17;;;;;;;3.25;2.75;;;9.90;99.90;;;;;;5000513;28;20140;-73
2021/12/08 12:10:45;;;;;;;4.72;2.20;;;9.80;99.90;;;;;;5009910;28;20518;-74
2021/12/08 12:13:12;;;;;;;2.13;1.73;;;10.00;99.90;;;;;;4992115;28;20043;-73
2021/12/08 12:15:44;;;;;;;2.13;1.90;;;10.10;99.90;;;;;;5009572;28;20053;-73
2021/12/08 12:18:11;;;;;;;4.03;2.42;;;10.20;99.90;;;;;;5010735;28;20141;-75
2021/12/08 12:20:44;;;;;;;2.35;1.75;;;10.30;99.90;;;;;;5006895;28;20113;-74
2021/12/08 12:23:46;;;;;;;3.90;2.22;;;10.30;99.90;;;;;;5001348;28;20030;-76
2021/12/08 12:26:21;;;;;;;3.30;1.73;;;10.30;99.90;;;;;;4994673;28;20469;-74
2021/12/08 12:29:03;;;;;;;2.53;2.10;;;10.30;99.90;;;;;;4994007;28;20082;-68
2021/12/08 12:31:54;;;;;;;7.90;2.10;;;10.30;99.90;;;;;;5009074;28;20026;-66
2021/12/08 12:34:27;;;;;;;9.70;2.58;;;10.20;99.90;;;;;;5011120;28;20053;-67
2021/12/08 12:36:54;;;;;;;3.75;1.85;;;10.10;99.90;;;;;;4994731;28;20030;-66
2021/12/08 12:39:25;;;;;;;5.60;1.75;;;10.00;99.90;;;;;;5010517;28;20115;-68
2021/12/08 12:42:02;;;;;;;4.35;2.00;;;10.00;99.90;;;;;;5011787;28;20108;-69
2021/12/08 12:44:30;;;;;;;2.25;1.60;;;10.00;99.90;;;;;;5012135;28;20049;-67
2021/12/08 12:47:26;;;;;;;4.93;2.58;;;10.10;99.90;;;;;;5003336;28;20026;-67
2021/12/08 12:50:04;;;;;;;3.50;1.88;;;10.10;99.90;;;;;;5006874;28;20080;-67
2021/12/08 12:52:38;;;;;;;3.30;2.10;;;10.10;99.90;;;;;;5009445;28;20049;-67
2021/12/08 12:55:40;;;;;;;6.22;2.28;;;10.10;99.90;;;;;;5010623;28;20109;-69
2021/12/08 12:58:06;;;;;;;4.72;1.95;;;10.10;99.90;;;;;;4983169;28;20038;-68
2021/12/08 13:00:45;;;;;;;4.25;2.17;;;10.10;99.90;;;;;;4992447;28;20093;-68
2021/12/08 13:03:40;;;;;;;3.75;3.05;;;10.10;99.90;;;;;;4995117;28;20364;-67
2021/12/08 13:06:07;;;;;;;3.05;2.30;;;10.10;99.90;;;;;;5011581;28;20451;-69
2021/12/08 13:08:45;;;;;;;2.65;1.90;;;10.10;99.90;;;;;;5010960;28;20026;-66
2021/12/08 13:11:26;;;;;;;1.33;1.23;;;10.10;99.90;;;;;;5011292;28;20033;-67
2021/12/08 13:13:54;;;;;;;3.33;1.98;;;10.10;99.90;;;;;;5006992;28;20029;-66
2021/12/08 13:16:33;;;;;;;5.32;3.20;;;10.10;99.90;;;;;;5011576;28;20103;-66
2021/12/08 13:19:05;;;;;;;6.97;2.85;;;10.20;99.90;;;;;;5009514;28;20049;-68
2021/12/08 13:21:42;;;;;;;4.45;2.42;;;10.10;99.90;;;;;;5010922;28;20026;-66
2021/12/08 13:24:33;;;;;;;3.38;2.40;;;10.00;99.90;;;;;;5005143;28;20546;-65
2021/12/08 13:27:01;;;;;;;5.55;2.08;;;9.90;99.90;;;;;;4992861;28;20495;-68
2021/12/08 13:29:31;;;;;;;5.55;2.17;;;9.90;99.90;;;;;;5007062;28;20048;-67
2021/12/08 13:32:10;;;;;;;2.90;1.65;;;9.90;99.90;;;;;;4992122;28;20026;-68
2021/12/08 13:34:37;;;;;;;2.83;1.65;;;9.90;99.90;;;;;;5010411;28;20114;-67
2021/12/08 13:37:22;;;;;;;3.90;2.15;;;9.90;99.90;;;;;;5010591;28;20029;-67
2021/12/08 13:39:51;;;;;;;3.10;1.98;;;10.00;99.90;;;;;;5009929;28;20026;-67
2021/12/08 13:42:30;;;;;;;3.63;2.00;;;10.00;99.90;;;;;;5010365;28;20032;-70
2021/12/08 13:45:03;;;;;;;2.08;1.88;;;9.90;99.90;;;;;;5008371;28;20530;-68
2021/12/08 13:47:31;;;;;;;7.65;2.03;;;9.80;99.90;;;;;;4992982;28;20117;-65
2021/12/08 13:50:13;;;;;;;2.63;1.70;;;9.90;99.90;;;;;;5009880;28;20156;-66
2021/12/08 13:52:57;;;;;;;2.63;1.80;;;9.90;99.90;;;;;;5010679;28;20034;-66
2021/12/08 13:55:26;;;;;;;13.10;3.85;;;9.80;99.90;;;;;;5010203;28;20034;-66
2021/12/08 13:58:11;;;;;;;4.82;2.78;;;9.90;99.90;;;;;;5007900;28;20042;-68
2021/12/08 14:00:47;;;;;;;11.88;3.75;;;9.80;99.90;;;;;;4989158;28;20022;-67
2021/12/08 14:03:24;;;;;;;8.35;3.13;;;9.70;99.90;;;;;;5009629;28;20014;-65
2021/12/08 14:05:59;;;;;;;5.60;3.28;;;9.60;99.90;;;;;;5010076;28;20030;-68
2021/12/08 14:08:25;;;;;;;6.43;2.85;;;9.50;99.90;;;;;;5007944;28;20518;-69
2021/12/08 14:11:02;;;;;;;5.05;3.55;;;9.20;99.90;;;;;;5009708;28;20057;-66